NCAR-RAP Real-Time Weather Data

Output produced by METARs form (01 December 2020  18:27 UTC)
found at http://weather.rap.ucar.edu/surface/
 
KABI 011652Z 21018G29KT 10SM CLR 11/M06 A3002 RMK AO2 PK WND 20030/1559 SLP166 T01111061
KABI 011552Z 21016G27KT 10SM CLR 09/M08 A3004 RMK AO2 PK WND 21027/1549 SLP174 T00941078
KABI 011452Z 19015G23KT 10SM CLR 07/M08 A3005 RMK AO2 SLP177 T00671083 58006
KABI 011352Z 19011KT 10SM CLR 04/M09 A3006 RMK AO2 SLP183 T00391089
KABI 011252Z 20012KT 10SM CLR 03/M09 A3006 RMK AO2 SLP182 T00281089
KABI 011152Z 20012KT 10SM CLR 04/M09 A3006 RMK AO2 SLP180 T00391089 10056 20006 58016
KABI 011052Z 20011KT 10SM CLR 04/M09 A3008 RMK AO2 SLP185 T00441094
KABI 010952Z 20010KT 10SM CLR 04/M09 A3010 RMK AO2 SLP191 T00391089
KABI 010852Z 21015G25KT 10SM CLR 05/M09 A3011 RMK AO2 PK WND 21026/0835 SLP195 T00501089 56029
KABI 010752Z 21010G16KT 10SM CLR 03/M08 A3014 RMK AO2 SLP208 T00331083
KABI 010652Z 19006KT 10SM CLR 01/M09 A3017 RMK AO2 SLP219 T00111089
KABI 010552Z 20006KT 10SM CLR 01/M08 A3021 RMK AO2 SLP232 T00111083 10083 21006 401001033 58015
KABI 010452Z 20007KT 10SM CLR 01/M08 A3023 RMK AO2 SLP243 T00111083
KABI 010352Z 17006KT 10SM CLR M01/M07 A3024 RMK AO2 SLP248 T10061067